Time;durP1;ratioP1;P1;durP2;ratioP2;P2;SDS_P1;SDS_P2;PMS_P1;PMS_P2;Temp;Humidity;BMP_temperature;BMP_pressure;BME280_temperature;BME280_humidity;BME280_pressure;Samples;Min_cycle;Max_cycle;Signal;HPM_P1;HPM_P2
2024/04/08 00:01:52;;;;;;;31.30;4.63;;;;;;;11.41;100.00;99565.81;4934649;29;20427;-91
2024/04/08 00:04:17;;;;;;;27.98;4.35;;;;;;;11.41;100.00;99565.81;4934665;29;20028;-91
2024/04/08 00:06:43;;;;;;;40.10;4.70;;;;;;;11.48;100.00;99559.22;4935872;29;20039;-91
2024/04/08 00:09:08;;;;;;;40.85;5.75;;;;;;;11.49;100.00;99553.13;4934532;29;20028;-91
2024/04/08 00:11:33;;;;;;;43.13;7.30;;;;;;;11.57;100.00;99557.72;4935877;29;20111;-91
2024/04/08 00:13:59;;;;;;;24.98;4.50;;;;;;;11.47;100.00;99552.44;4934519;29;20020;-92
2024/04/08 00:16:24;;;;;;;37.47;4.72;;;;;;;11.40;100.00;99553.00;4935606;29;20118;-92
2024/04/08 00:18:50;;;;;;;31.00;4.93;;;;;;;11.40;100.00;99548.66;4934452;29;20030;-92
2024/04/08 00:21:16;;;;;;;26.10;4.72;;;;;;;11.50;100.00;99543.63;4935598;29;20046;-92
2024/04/08 00:23:42;;;;;;;35.33;4.80;;;;;;;11.50;100.00;99534.09;4935742;29;20031;-92
2024/04/08 00:26:08;;;;;;;28.90;5.18;;;;;;;11.47;100.00;99538.69;4934239;29;20035;-92
2024/04/08 00:28:34;;;;;;;33.20;5.78;;;;;;;11.54;100.00;99545.88;4935555;29;20027;-93
2024/04/08 00:31:10;;;;;;;32.45;4.18;;;;;;;11.60;100.00;99533.41;4935501;29;20030;-92
2024/04/08 00:33:36;;;;;;;29.45;4.20;;;;;;;11.50;100.00;99538.44;4935444;29;20049;-93
2024/04/08 00:36:06;;;;;;;30.20;4.10;;;;;;;11.55;100.00;99532.00;4935378;29;20039;-92
2024/04/08 00:38:31;;;;;;;37.38;5.07;;;;;;;11.56;100.00;99528.47;4933943;29;20038;-90
2024/04/08 00:41:03;;;;;;;30.40;4.28;;;;;;;11.54;100.00;99539.88;4935506;29;20437;-93
2024/04/08 00:43:28;;;;;;;38.17;4.38;;;;;;;11.51;100.00;99534.91;4934311;29;20023;-93
2024/04/08 00:45:55;;;;;;;28.63;6.00;;;;;;;11.51;100.00;99525.44;4934245;29;20439;-92
2024/04/08 00:48:21;;;;;;;34.95;5.28;;;;;;;11.41;100.00;99529.66;4933875;29;20032;-92
2024/04/08 00:50:49;;;;;;;33.70;5.68;;;;;;;11.44;100.00;99534.59;4933863;29;20016;-92
2024/04/08 00:53:16;;;;;;;35.47;3.95;;;;;;;11.44;100.00;99529.41;4934070;29;20032;-92
2024/04/08 00:55:43;;;;;;;31.30;5.13;;;;;;;11.47;100.00;99518.03;4935052;29;20023;-92
2024/04/08 00:58:08;;;;;;;23.48;3.60;;;;;;;11.51;100.00;99517.69;4935077;29;20380;-92
2024/04/08 01:00:33;;;;;;;31.45;4.85;;;;;;;11.36;100.00;99521.41;4935162;29;20071;-92
2024/04/08 01:03:02;;;;;;;31.52;4.13;;;;;;;11.27;100.00;99522.13;4933612;29;20012;-92
2024/04/08 01:05:28;;;;;;;33.30;4.78;;;;;;;11.36;100.00;99516.22;4935012;29;20039;-93
2024/04/08 01:07:53;;;;;;;37.15;5.22;;;;;;;11.39;100.00;99513.44;4934945;29;20659;-92
2024/04/08 01:10:19;;;;;;;36.25;4.18;;;;;;;11.39;100.00;99513.44;4935181;29;20028;-92
2024/04/08 01:12:47;;;;;;;21.40;3.08;;;;;;;11.40;100.00;99503.91;4935262;29;20024;-92
2024/04/08 01:15:13;;;;;;;34.95;4.68;;;;;;;11.41;100.00;99497.81;4934540;29;20035;-92
2024/04/08 01:17:39;;;;;;;19.63;3.45;;;;;;;11.38;100.00;99498.84;4935258;29;20032;-92
2024/04/08 01:20:05;;;;;;;32.67;4.25;;;;;;;11.40;100.00;99502.16;4935381;29;20549;-93
2024/04/08 01:22:32;;;;;;;32.97;4.65;;;;;;;11.35;100.00;99499.91;4933646;29;20058;-92
2024/04/08 01:24:58;;;;;;;34.08;5.68;;;;;;;11.34;100.00;99500.88;4935111;29;20634;-90
2024/04/08 01:29:06;;;;;;;34.67;4.10;;;;;;;11.35;100.00;99493.94;5506999;25;20103;-91
2024/04/08 01:31:32;;;;;;;26.38;5.05;;;;;;;11.32;100.00;99499.34;5505189;26;20504;-91
2024/04/08 01:33:57;;;;;;;41.45;7.40;;;;;;;11.24;100.00;99481.00;5505393;26;20005;-91
2024/04/08 01:36:22;;;;;;;42.67;5.82;;;;;;;11.31;100.00;99482.19;5499879;26;20005;-92
2024/04/08 01:38:48;;;;;;;28.92;4.35;;;;;;;11.33;100.00;99457.06;5468884;26;19991;-91
2024/04/08 01:41:13;;;;;;;40.03;5.93;;;;;;;11.28;100.00;99452.22;5470819;26;19998;-92
2024/04/08 01:43:39;;;;;;;35.58;4.82;;;;;;;11.25;100.00;99464.56;5468838;26;20063;-91
2024/04/08 01:46:05;;;;;;;36.15;4.78;;;;;;;11.26;100.00;99469.59;5470366;26;20400;-92
2024/04/08 01:48:31;;;;;;;37.72;5.10;;;;;;;11.25;100.00;99473.13;5468526;26;19991;-91
2024/04/08 01:50:56;;;;;;;35.55;5.40;;;;;;;11.35;100.00;99470.69;5469879;26;19990;-92
2024/04/08 01:53:21;;;;;;;33.67;5.25;;;;;;;11.42;100.00;99474.44;5470265;26;20006;-91
2024/04/08 01:55:47;;;;;;;40.53;4.57;;;;;;;11.26;100.00;99474.78;5470475;26;20439;-91
2024/04/08 01:58:12;;;;;;;25.38;4.32;;;;;;;11.31;100.00;99475.28;5470219;26;19994;-92
2024/04/08 02:00:38;;;;;;;27.95;4.93;;;;;;;11.34;100.00;99471.63;5468486;26;19990;-93
2024/04/08 02:03:04;;;;;;;39.53;6.60;;;;;;;11.24;100.00;99462.91;5470216;26;19990;-91
2024/04/08 02:05:29;;;;;;;45.50;6.60;;;;;;;11.30;100.00;99465.03;5468267;26;20316;-91
2024/04/08 02:07:54;;;;;;;25.85;4.30;;;;;;;11.30;100.00;99465.88;5470278;26;20059;-91
2024/04/08 02:10:20;;;;;;;27.98;4.75;;;;;;;11.38;100.00;99454.94;5468398;26;20030;-91
2024/04/08 02:12:47;;;;;;;27.23;4.72;;;;;;;11.33;100.00;99450.13;5470318;26;19995;-92
2024/04/08 02:15:13;;;;;;;29.25;4.20;;;;;;;11.43;100.00;99449.41;5468163;26;20001;-91
2024/04/08 02:17:38;;;;;;;36.22;6.15;;;;;;;11.33;100.00;99446.72;5469660;26;19991;-91
2024/04/08 02:20:06;;;;;;;28.52;4.38;;;;;;;11.38;100.00;99447.19;5470210;26;20447;-92
2024/04/08 02:22:32;;;;;;;31.63;4.68;;;;;;;11.32;100.00;99439.91;5470029;26;20002;-92
2024/04/08 02:24:57;;;;;;;27.73;4.18;;;;;;;11.31;100.00;99446.00;5468188;26;19991;-92
2024/04/08 02:27:23;;;;;;;35.50;4.63;;;;;;;11.33;100.00;99441.56;5467686;26;19996;-90
2024/04/08 02:29:48;;;;;;;32.33;3.72;;;;;;;11.31;100.00;99446.00;5469642;26;19991;-92
2024/04/08 02:32:14;;;;;;;27.38;3.65;;;;;;;11.30;100.00;99436.63;5469811;26;20065;-92
2024/04/08 02:34:40;;;;;;;33.95;4.63;;;;;;;11.35;100.00;99444.84;5468052;26;20002;-91
2024/04/08 02:37:05;;;;;;;36.08;5.15;;;;;;;11.36;100.00;99438.72;5470176;26;19994;-91
2024/04/08 02:39:30;;;;;;;37.88;5.40;;;;;;;11.35;100.00;99434.50;5458627;26;19991;-91
2024/04/08 02:41:56;;;;;;;34.05;4.43;;;;;;;11.29;100.00;99427.22;5452246;26;19998;-91
2024/04/08 02:44:21;;;;;;;39.58;5.32;;;;;;;11.20;100.00;99426.19;5454087;26;20005;-91
2024/04/08 02:46:47;;;;;;;38.83;5.57;;;;;;;11.27;100.00;99408.47;5452105;26;20059;-91
2024/04/08 02:49:12;;;;;;;36.97;5.00;;;;;;;11.26;100.00;99407.63;5453868;26;20006;-91
2024/04/08 02:51:37;;;;;;;35.78;5.00;;;;;;;11.20;100.00;99418.44;5453840;26;19991;-91
2024/04/08 02:54:03;;;;;;;37.05;5.93;;;;;;;11.34;100.00;99414.78;5453790;26;19991;-90
2024/04/08 02:56:28;;;;;;;39.90;5.30;;;;;;;11.23;100.00;99401.88;5454038;26;20040;-91
2024/04/08 02:58:54;;;;;;;36.92;4.35;;;;;;;11.25;100.00;99400.00;5454520;26;20455;-91
2024/04/08 03:01:19;;;;;;;33.22;4.38;;;;;;;11.22;100.00;99388.16;5453946;26;20400;-91
2024/04/08 03:03:45;;;;;;;33.50;5.07;;;;;;;11.23;100.00;99391.53;5454076;26;20361;-92
2024/04/08 03:06:15;;;;;;;38.13;6.00;;;;;;;11.17;100.00;99404.91;5453522;26;20045;-92
2024/04/08 03:08:41;;;;;;;29.25;4.85;;;;;;;11.19;100.00;99421.13;5451304;26;20047;-91
2024/04/08 03:11:08;;;;;;;23.67;4.03;;;;;;;11.20;100.00;99430.53;5452041;26;20071;-93
2024/04/08 03:13:38;;;;;;;35.72;5.53;;;;;;;11.13;100.00;99443.91;5452015;26;20003;-92
2024/04/08 03:16:04;;;;;;;34.47;4.60;;;;;;;11.04;100.00;99444.56;5453728;26;20010;-91
2024/04/08 03:18:30;;;;;;;30.73;4.88;;;;;;;11.02;100.00;99436.16;5453839;26;19999;-91
2024/04/08 03:21:03;;;;;;;31.20;4.15;;;;;;;11.10;100.00;99438.97;5454142;26;20032;-91
2024/04/08 03:23:29;;;;;;;30.80;5.20;;;;;;;11.12;100.00;99426.75;5451886;26;20011;-93
2024/04/08 03:26:03;;;;;;;37.60;4.28;;;;;;;11.04;100.00;99423.91;5451945;26;20027;-92
2024/04/08 03:28:29;;;;;;;29.98;4.85;;;;;;;11.00;100.00;99426.84;5451528;26;19999;-91
2024/04/08 03:30:56;;;;;;;31.80;5.22;;;;;;;11.05;100.00;99433.34;5451876;26;19995;-91
2024/04/08 03:33:23;;;;;;;40.40;6.65;;;;;;;11.06;100.00;99432.38;5451556;26;20010;-91
2024/04/08 03:35:49;;;;;;;28.90;4.05;;;;;;;11.11;100.00;99419.94;5453362;26;20402;-92
2024/04/08 03:38:15;;;;;;;24.17;3.58;;;;;;;11.02;100.00;99405.16;5451535;26;20034;-92
2024/04/08 03:40:41;;;;;;;35.42;4.15;;;;;;;11.01;100.00;99423.34;5451491;26;20036;-91
2024/04/08 03:43:07;;;;;;;30.83;3.47;;;;;;;11.01;100.00;99431.91;5451980;26;20011;-92
2024/04/08 03:45:32;;;;;;;24.27;3.83;;;;;;;11.08;100.00;99440.84;5453727;26;20001;-92
2024/04/08 03:47:58;;;;;;;33.25;5.78;;;;;;;11.11;100.00;99438.00;5451200;26;19994;-92
2024/04/08 03:50:30;;;;;;;29.48;5.05;;;;;;;11.01;100.00;99444.00;5453620;26;20441;-91
2024/04/08 03:52:57;;;;;;;38.33;4.82;;;;;;;11.04;100.00;99442.00;5451585;26;20009;-91
2024/04/08 03:55:30;;;;;;;28.23;4.63;;;;;;;10.99;100.00;99441.53;5452602;26;20030;-91
2024/04/08 03:57:56;;;;;;;34.53;4.00;;;;;;;11.02;100.00;99441.31;5451112;26;20436;-92
2024/04/08 04:00:22;;;;;;;35.38;4.10;;;;;;;10.93;100.00;99437.66;5451615;26;20067;-91
2024/04/08 04:02:47;;;;;;;33.42;4.30;;;;;;;10.99;100.00;99441.53;5451425;26;20036;-92
2024/04/08 04:05:13;;;;;;;20.52;3.88;;;;;;;10.96;100.00;99439.19;5451287;26;20410;-92
2024/04/08 04:07:38;;;;;;;26.52;3.95;;;;;;;10.98;100.00;99439.06;5453312;26;20070;-92
2024/04/08 04:10:04;;;;;;;33.45;4.68;;;;;;;10.94;100.00;99443.63;5451598;26;20398;-91
2024/04/08 04:12:33;;;;;;;32.05;3.72;;;;;;;10.99;100.00;99436.34;5451379;26;19999;-93
2024/04/08 04:15:05;;;;;;;32.20;4.43;;;;;;;11.03;100.00;99437.78;5451343;26;20448;-93
2024/04/08 04:17:30;;;;;;;30.70;5.35;;;;;;;10.91;100.00;99436.13;5451050;26;20337;-92
2024/04/08 04:19:56;;;;;;;30.50;4.75;;;;;;;10.93;100.00;99437.66;5451432;26;20161;-92
2024/04/08 04:22:21;;;;;;;27.92;3.53;;;;;;;10.91;100.00;99436.94;5452812;26;20344;-92
2024/04/08 04:24:47;;;;;;;35.22;5.28;;;;;;;10.88;100.00;99426.03;5452848;26;20044;-92
2024/04/08 04:27:12;;;;;;;31.55;3.85;;;;;;;10.84;100.00;99406.53;5452850;26;19995;-92
2024/04/08 04:29:38;;;;;;;38.88;4.38;;;;;;;10.91;100.00;99418.06;5452648;26;19999;-91
2024/04/08 04:32:03;;;;;;;32.45;3.92;;;;;;;10.89;100.00;99420.75;5452457;26;20006;-91
2024/04/08 04:34:28;;;;;;;29.95;5.47;;;;;;;10.97;100.00;99416.75;5452735;26;20009;-92
2024/04/08 04:36:54;;;;;;;31.88;5.55;;;;;;;10.89;100.00;99417.34;5452125;26;19998;-91
2024/04/08 04:39:19;;;;;;;33.85;5.50;;;;;;;10.89;100.00;99419.91;5452363;26;19998;-92
2024/04/08 04:41:46;;;;;;;38.72;4.45;;;;;;;10.89;100.00;99414.75;5450752;26;20340;-92
2024/04/08 04:44:11;;;;;;;32.15;4.32;;;;;;;10.87;100.00;99426.94;5450804;26;19999;-90
2024/04/08 04:46:36;;;;;;;30.25;4.43;;;;;;;10.92;100.00;99424.84;5450392;26;20337;-91
2024/04/08 04:49:02;;;;;;;28.23;3.85;;;;;;;10.96;100.00;99430.63;5452162;26;19995;-91
2024/04/08 04:51:27;;;;;;;30.33;3.75;;;;;;;10.92;100.00;99430.00;5452516;26;20009;-91
2024/04/08 04:53:53;;;;;;;30.75;4.82;;;;;;;10.86;100.00;99425.31;5452114;26;19998;-91
2024/04/08 04:56:19;;;;;;;24.25;3.35;;;;;;;10.90;100.00;99416.41;5450594;26;20392;-91
2024/04/08 04:58:44;;;;;;;34.97;4.68;;;;;;;10.83;100.00;99399.75;5452148;26;20011;-91
2024/04/08 05:01:09;;;;;;;26.17;3.92;;;;;;;10.85;100.00;99372.88;5451910;26;20013;-92
2024/04/08 05:03:35;;;;;;;35.53;5.13;;;;;;;10.77;100.00;99376.97;5449670;26;20079;-92
2024/04/08 05:06:00;;;;;;;30.42;5.28;;;;;;;10.77;100.00;99384.72;5450532;26;20010;-91
2024/04/08 05:08:25;;;;;;;34.22;5.30;;;;;;;10.82;100.00;99378.25;5451996;26;20005;-92
2024/04/08 05:10:51;;;;;;;27.77;5.75;;;;;;;10.84;100.00;99380.72;5451774;26;20006;-91
2024/04/08 05:13:18;;;;;;;27.73;4.05;;;;;;;10.81;100.00;99376.63;5451971;26;19995;-92
2024/04/08 05:16:01;;;;;;;37.65;4.80;;;;;;;10.83;100.00;99384.25;5451433;26;20038;-91
2024/04/08 05:18:27;;;;;;;33.50;3.97;;;;;;;10.80;100.00;99385.31;5451695;26;19999;-91
2024/04/08 05:20:53;;;;;;;22.48;3.28;;;;;;;10.72;100.00;99387.63;5451800;26;19995;-91
2024/04/08 05:23:22;;;;;;;22.80;3.20;;;;;;;10.78;100.00;99382.03;5451618;26;20002;-92
2024/04/08 05:25:49;;;;;;;25.35;3.53;;;;;;;10.67;100.00;99382.81;5450248;26;20003;-91
2024/04/08 05:28:14;;;;;;;27.25;3.85;;;;;;;10.65;100.00;99389.03;5451555;26;19995;-92
2024/04/08 05:30:43;;;;;;;33.33;5.75;;;;;;;10.68;100.00;99381.88;5451761;26;20433;-91
2024/04/08 05:33:08;;;;;;;32.40;4.00;;;;;;;10.67;100.00;99390.53;5450089;26;19999;-91
2024/04/08 05:35:35;;;;;;;23.00;3.55;;;;;;;10.61;100.00;99385.88;5452146;26;20010;-92
2024/04/08 05:38:00;;;;;;;27.70;3.55;;;;;;;10.61;100.00;99377.31;5452016;26;20006;-92
2024/04/08 05:40:26;;;;;;;26.33;3.78;;;;;;;10.56;100.00;99372.47;5451972;26;20067;-92
2024/04/08 05:42:52;;;;;;;25.00;5.00;;;;;;;10.65;100.00;99376.13;5451880;26;20449;-91
2024/04/08 05:45:17;;;;;;;31.80;4.18;;;;;;;10.68;100.00;99374.16;5452392;26;20300;-91
2024/04/08 05:47:42;;;;;;;30.30;4.07;;;;;;;10.60;100.00;99371.28;5451225;26;19995;-92
2024/04/08 05:50:08;;;;;;;24.00;3.85;;;;;;;10.66;100.00;99383.75;5451628;26;20035;-91
2024/04/08 05:52:33;;;;;;;28.63;4.05;;;;;;;10.59;100.00;99371.44;5451067;26;19994;-92
2024/04/08 05:54:59;;;;;;;40.45;3.30;;;;;;;10.70;100.00;99384.34;5450841;26;20039;-91
2024/04/08 05:57:27;;;;;;;19.92;3.03;;;;;;;10.69;100.00;99375.78;5449064;26;20521;-92
2024/04/08 05:59:52;;;;;;;27.77;4.20;;;;;;;10.56;100.00;99372.47;5448978;26;20001;-91
2024/04/08 06:02:18;;;;;;;23.98;3.75;;;;;;;10.63;100.00;99377.97;5448778;26;20071;-91
2024/04/08 06:04:45;;;;;;;29.17;4.63;;;;;;;10.71;100.00;99389.41;5450965;26;19994;-92
2024/04/08 06:07:10;;;;;;;29.42;5.03;;;;;;;10.70;100.00;99385.19;5450585;26;19999;-92
2024/04/08 06:09:36;;;;;;;21.77;4.32;;;;;;;10.73;100.00;99389.28;5450898;26;20014;-91
2024/04/08 06:12:02;;;;;;;28.08;3.28;;;;;;;10.65;100.00;99381.28;5449093;26;20006;-92
2024/04/08 06:14:27;;;;;;;30.70;3.83;;;;;;;10.68;100.00;99397.38;5450216;26;20007;-91
2024/04/08 06:16:53;;;;;;;27.23;4.30;;;;;;;10.64;100.00;99390.78;5454417;26;19997;-91
2024/04/08 06:19:19;;;;;;;23.63;3.13;;;;;;;10.54;100.00;99394.19;5454128;26;20063;-92
2024/04/08 06:21:44;;;;;;;25.40;2.92;;;;;;;10.65;100.00;99395.00;5452583;26;20414;-91
2024/04/08 06:24:10;;;;;;;29.10;4.85;;;;;;;10.62;100.00;99392.66;5452252;26;20035;-91
2024/04/08 06:26:36;;;;;;;20.50;4.00;;;;;;;10.73;100.00;99402.19;5452311;26;19999;-92
2024/04/08 06:29:02;;;;;;;24.40;4.43;;;;;;;10.69;100.00;99404.16;5452214;26;20006;-91
2024/04/08 06:31:28;;;;;;;29.80;4.57;;;;;;;10.68;100.00;99397.38;5452128;26;20003;-92
2024/04/08 06:33:53;;;;;;;33.60;4.88;;;;;;;10.60;100.00;99398.88;5451948;26;20064;-91
2024/04/08 06:36:22;;;;;;;27.10;3.78;;;;;;;10.60;100.00;99388.53;5451770;26;19995;-92
2024/04/08 06:38:47;;;;;;;23.98;3.28;;;;;;;10.77;100.00;99403.59;5452177;26;20425;-91
2024/04/08 06:41:15;;;;;;;25.90;4.45;;;;;;;10.81;100.00;99396.44;5451999;26;20010;-91
2024/04/08 06:43:41;;;;;;;24.13;3.80;;;;;;;10.78;100.00;99394.94;5451888;26;20445;-92
2024/04/08 06:46:07;;;;;;;26.52;2.95;;;;;;;10.77;100.00;99388.09;5453760;26;19998;-91
2024/04/08 06:48:33;;;;;;;33.50;4.22;;;;;;;10.76;100.00;99399.38;5451753;26;20348;-91
2024/04/08 06:50:58;;;;;;;32.55;4.05;;;;;;;10.75;100.00;99396.91;5451882;26;20040;-91
2024/04/08 06:53:24;;;;;;;23.13;3.60;;;;;;;10.82;100.00;99385.19;5453875;26;19995;-91
2024/04/08 06:55:49;;;;;;;40.75;3.65;;;;;;;10.89;100.00;99388.94;5451854;26;19994;-91
2024/04/08 06:58:19;;;;;;;34.35;4.38;;;;;;;10.88;100.00;99387.31;5451884;26;19995;-91
2024/04/08 07:00:46;;;;;;;26.00;4.03;;;;;;;10.87;100.00;99380.50;5451914;26;20437;-92
2024/04/08 07:03:11;;;;;;;31.58;4.75;;;;;;;10.88;100.00;99385.56;5454253;26;20022;-91
2024/04/08 07:05:36;;;;;;;23.27;4.35;;;;;;;10.97;100.00;99376.25;5454265;26;20328;-91
2024/04/08 07:08:02;;;;;;;24.45;3.75;;;;;;;10.87;100.00;99380.50;5450984;26;20010;-91
2024/04/08 07:10:28;;;;;;;34.83;3.97;;;;;;;10.86;100.00;99379.69;5450612;26;20022;-90
2024/04/08 07:12:53;;;;;;;25.52;3.58;;;;;;;10.94;100.00;99368.75;5453756;26;20484;-92
2024/04/08 07:15:20;;;;;;;26.10;4.97;;;;;;;11.13;100.00;99381.91;5452703;26;20010;-91
2024/04/08 07:17:45;;;;;;;24.58;3.45;;;;;;;11.12;100.00;99372.53;5453378;26;19999;-90
2024/04/08 07:20:11;;;;;;;28.70;3.72;;;;;;;11.25;100.00;99369.00;5452028;26;20010;-89
2024/04/08 07:22:36;;;;;;;20.35;3.67;;;;;;;11.25;100.00;99374.16;5451665;26;20006;-90
2024/04/08 07:25:03;;;;;;;21.17;2.72;;;;;;;11.31;100.00;99365.94;5452935;26;20071;-90
2024/04/08 07:27:28;;;;;;;21.95;3.20;;;;;;;11.32;100.00;99360.66;5451362;26;19991;-89
2024/04/08 07:29:53;;;;;;;19.45;4.38;;;;;;;11.29;100.00;99360.06;5450576;26;20075;-91
2024/04/08 07:32:19;;;;;;;22.75;3.60;;;;;;;11.24;100.00;99363.03;5452886;26;20332;-91
2024/04/08 07:34:44;;;;;;;25.48;4.30;;;;;;;11.14;100.00;99362.91;5453275;26;20026;-91
2024/04/08 07:37:12;;;;;;;25.50;3.53;;;;;;;11.11;100.00;99365.72;5453691;26;19999;-96
2024/04/08 07:39:38;;;;;;;32.58;4.88;;;;;;;11.09;100.00;99362.41;5453420;26;19999;-94
2024/04/08 07:42:06;;;;;;;35.40;4.55;;;;;;;10.97;100.00;99355.59;5453115;26;20005;-95
2024/04/08 07:44:32;;;;;;;24.55;3.67;;;;;;;11.05;100.00;99353.28;5452860;26;20318;-90
2024/04/08 07:46:57;;;;;;;20.45;3.17;;;;;;;11.14;100.00;99360.34;5453552;26;20388;-93
2024/04/08 07:49:22;;;;;;;24.50;3.38;;;;;;;10.88;100.00;99356.34;5453593;26;20522;-93
2024/04/08 07:51:48;;;;;;;23.48;3.15;;;;;;;10.93;100.00;99349.06;5452454;26;20325;-94
2024/04/08 07:54:14;;;;;;;29.88;4.07;;;;;;;11.08;100.00;99352.22;5451054;26;19999;-96
2024/04/08 07:56:40;;;;;;;23.23;3.60;;;;;;;11.14;100.00;99346.56;5454486;26;20345;-93
2024/04/08 07:59:06;;;;;;;21.95;3.13;;;;;;;11.06;100.00;99339.41;5452907;26;20013;-95
2024/04/08 08:01:35;;;;;;;28.05;4.10;;;;;;;11.04;100.00;99327.56;5453109;26;20006;-96
2024/04/08 08:04:01;;;;;;;21.25;2.97;;;;;;;11.23;100.00;99327.78;5452383;26;20006;-96
2024/04/08 08:06:28;;;;;;;15.65;2.72;;;;;;;11.32;100.00;99334.00;5457389;26;19998;-94
2024/04/08 08:08:53;;;;;;;23.15;3.72;;;;;;;11.43;100.00;99344.31;5453137;26;20006;-92
2024/04/08 08:11:18;;;;;;;28.90;3.58;;;;;;;11.45;100.00;99334.69;5450633;26;20476;-91
2024/04/08 08:13:44;;;;;;;24.15;4.57;;;;;;;11.62;100.00;99343.69;5453300;26;19998;-93
2024/04/08 08:16:09;;;;;;;18.58;3.50;;;;;;;11.63;100.00;99331.56;5450895;26;20439;-91
2024/04/08 08:18:34;;;;;;;19.50;3.85;;;;;;;11.54;100.00;99320.22;5450511;26;20002;-93
2024/04/08 08:21:02;;;;;;;19.60;3.20;;;;;;;11.67;100.00;99328.63;5452812;26;19991;-92
2024/04/08 08:23:28;;;;;;;26.30;4.55;;;;;;;11.50;100.00;99337.72;5449759;26;20009;-91
2024/04/08 08:25:53;;;;;;;23.15;3.42;;;;;;;11.60;100.00;99332.63;5452638;26;20007;-91
2024/04/08 08:28:20;;;;;;;16.70;3.03;;;;;;;11.67;100.00;99333.78;5451787;26;20075;-93
2024/04/08 08:30:46;;;;;;;32.53;5.03;;;;;;;11.67;100.00;99322.66;5452310;26;20340;-93
2024/04/08 08:33:12;;;;;;;16.60;2.20;;;;;;;11.75;100.00;99317.66;5450980;26;19995;-92
2024/04/08 08:35:37;;;;;;;28.20;4.40;;;;;;;11.89;100.00;99322.59;5450999;26;20089;-90
2024/04/08 08:38:03;;;;;;;17.20;3.70;;;;;;;11.93;100.00;99298.13;5450378;26;20005;-92
2024/04/08 08:40:29;;;;;;;20.00;3.03;;;;;;;12.02;100.00;99290.56;5450867;26;20002;-93
2024/04/08 08:42:56;;;;;;;13.95;2.88;;;;;;;12.15;100.00;99302.38;5451911;26;20045;-92
2024/04/08 08:45:22;;;;;;;26.55;3.90;;;;;;;12.05;100.00;99295.50;5450821;26;20463;-93
2024/04/08 08:47:47;;;;;;;30.17;4.15;;;;;;;12.13;100.00;99303.44;5451016;26;20071;-94
2024/04/08 08:50:13;;;;;;;24.92;4.30;;;;;;;12.09;100.00;99302.84;5451752;26;20384;-94
2024/04/08 08:52:39;;;;;;;18.77;3.22;;;;;;;12.06;100.00;99307.47;5450477;26;20325;-93
2024/04/08 08:55:05;;;;;;;20.73;2.92;;;;;;;12.06;100.00;99297.94;5451274;26;20014;-92
2024/04/08 08:57:32;;;;;;;25.15;3.83;;;;;;;11.97;100.00;99303.84;5451010;26;20027;-94
2024/04/08 08:59:58;;;;;;;17.63;3.00;;;;;;;12.03;100.00;99302.56;5451530;26;20441;-93
2024/04/08 09:02:25;;;;;;;20.92;4.38;;;;;;;11.99;100.00;99297.63;5451077;26;20001;-92
2024/04/08 09:04:51;;;;;;;27.42;3.30;;;;;;;12.00;100.00;99282.94;5451005;26;19994;-93
2024/04/08 09:07:16;;;;;;;17.52;2.67;;;;;;;12.03;100.00;99284.47;5450310;26;20067;-92
2024/04/08 09:09:53;;;;;;;22.42;3.63;;;;;;;12.14;100.00;99281.78;5450618;26;20437;-95
2024/04/08 09:12:19;;;;;;;22.33;3.10;;;;;;;12.13;100.00;99287.91;5450434;26;20533;-93
2024/04/08 09:14:44;;;;;;;20.48;3.90;;;;;;;12.14;100.00;99281.78;5450650;26;19999;-93
2024/04/08 09:17:10;;;;;;;17.08;2.60;;;;;;;12.02;100.00;99290.56;5448862;26;20357;-92
2024/04/08 09:19:36;;;;;;;20.05;3.50;;;;;;;12.08;100.00;99285.72;5450187;26;19990;-92
2024/04/08 09:22:03;;;;;;;30.63;3.47;;;;;;;12.03;100.00;99279.28;5452162;26;20449;-93
2024/04/08 09:24:30;;;;;;;21.40;2.80;;;;;;;12.11;100.00;99282.06;5451753;26;19998;-93
2024/04/08 09:26:56;;;;;;;29.33;2.80;;;;;;;12.27;100.00;99285.03;5450920;26;19987;-92
2024/04/08 09:29:21;;;;;;;14.43;2.53;;;;;;;12.26;100.00;99282.53;5451442;26;20320;-95
2024/04/08 09:31:46;;;;;;;22.00;3.20;;;;;;;12.34;100.00;99275.81;5452195;26;19995;-96
2024/04/08 09:34:12;;;;;;;16.60;2.22;;;;;;;12.52;100.00;99268.25;5451709;26;20068;-94
2024/04/08 09:36:40;;;;;;;15.57;3.88;;;;;;;12.60;100.00;99259.84;5451252;26;19999;-96
2024/04/08 09:39:09;;;;;;;20.92;2.78;;;;;;;12.69;100.00;99264.25;5451428;26;20006;-94
2024/04/08 09:41:36;;;;;;;15.45;2.28;;;;;;;12.75;100.00;99268.91;5452993;26;20038;-94
2024/04/08 09:44:02;;;;;;;19.83;2.83;;;;;;;12.83;100.00;99263.06;5452374;26;20005;-94
2024/04/08 09:46:28;;;;;;;15.45;3.45;;;;;;;12.89;100.00;99269.50;5451461;26;20506;-94
2024/04/08 09:48:54;;;;;;;23.45;2.70;;;;;;;12.98;100.00;99268.72;5452382;26;20026;-94
2024/04/08 09:51:20;;;;;;;19.98;3.00;;;;;;;13.01;100.00;99263.25;5454485;26;19999;-95
2024/04/08 09:53:46;;;;;;;20.23;2.70;;;;;;;12.92;100.00;99264.84;5454531;26;19998;-93
2024/04/08 09:56:16;;;;;;;12.25;2.95;;;;;;;12.87;100.00;99272.19;5453996;26;20505;-93
2024/04/08 09:58:52;;;;;;;14.55;2.40;;;;;;;13.15;100.00;99249.94;5454125;26;20063;-95
2024/04/08 10:01:19;;;;;;;12.90;2.72;;;;;;;13.24;100.00;99259.50;5454566;26;19991;-95
2024/04/08 10:03:59;;;;;;;17.98;2.33;;;;;;;13.16;100.00;99254.13;5454456;26;19982;-94
2024/04/08 10:06:25;;;;;;;16.30;4.13;;;;;;;13.26;100.00;99252.41;5454274;26;19999;-94
2024/04/08 10:08:51;;;;;;;11.85;2.33;;;;;;;13.35;100.00;99260.34;5453735;26;20006;-95
2024/04/08 10:11:17;;;;;;;20.60;3.95;;;;;;;13.49;100.00;99252.19;5454375;26;19994;-94
2024/04/08 10:13:49;;;;;;;19.25;2.67;;;;;;;13.31;100.00;99248.59;5453424;26;19995;-95
2024/04/08 10:16:16;;;;;;;21.73;5.00;;;;;;;13.29;100.00;99246.16;5453225;26;20027;-95
2024/04/08 10:18:55;;;;;;;16.23;2.75;;;;;;;13.44;100.00;99246.59;5454710;26;20068;-95
2024/04/08 10:21:22;;;;;;;12.40;2.33;;;;;;;13.23;100.00;99247.47;5453412;26;20340;-95
2024/04/08 10:23:52;;;;;;;15.65;2.05;;;;;;;13.09;99.14;99249.63;5454086;26;20027;-93
2024/04/08 10:26:17;;;;;;;14.55;2.08;;;;;;;13.12;98.04;99224.28;5453492;26;19999;-94
2024/04/08 10:28:43;;;;;;;7.90;1.75;;;;;;;13.57;94.73;99223.78;5453761;26;19999;-95
2024/04/08 10:31:09;;;;;;;14.98;2.67;;;;;;;13.60;95.46;99222.69;5453653;26;20437;-94
2024/04/08 10:33:35;;;;;;;14.30;2.88;;;;;;;13.66;90.79;99215.19;5456311;26;20077;-93
2024/04/08 10:36:04;;;;;;;9.63;1.55;;;;;;;13.64;90.89;99208.50;5455638;26;20012;-94
2024/04/08 10:38:30;;;;;;;9.40;1.98;;;;;;;13.68;86.94;99195.13;5453795;26;20003;-93
2024/04/08 10:40:56;;;;;;;6.65;1.48;;;;;;;13.74;86.82;99198.13;5453270;26;20075;-96
2024/04/08 10:43:23;;;;;;;9.15;1.48;;;;;;;13.82;83.94;99190.47;5453226;26;20070;-94
2024/04/08 10:45:52;;;;;;;11.55;2.42;;;;;;;14.31;82.79;99183.34;5453078;26;20129;-95
2024/04/08 10:48:18;;;;;;;10.43;1.40;;;;;;;14.97;79.82;99180.59;5453159;26;19991;-95
2024/04/08 10:50:46;;;;;;;8.50;1.48;;;;;;;15.10;76.79;99174.22;5453022;26;20071;-95
2024/04/08 10:53:12;;;;;;;10.75;1.50;;;;;;;15.28;76.53;99169.00;5453104;26;20429;-94
2024/04/08 10:55:37;;;;;;;8.73;1.60;;;;;;;15.56;76.32;99177.53;5452695;26;20006;-94
2024/04/08 10:58:03;;;;;;;15.80;1.98;;;;;;;15.51;75.23;99171.94;5452788;26;20272;-95
2024/04/08 11:00:28;;;;;;;15.02;2.00;;;;;;;15.55;72.16;99160.28;5451708;26;20067;-95
2024/04/08 11:02:54;;;;;;;9.48;1.85;;;;;;;15.55;69.16;99160.28;5452783;26;20002;-94
2024/04/08 11:05:19;;;;;;;15.23;2.40;;;;;;;15.48;68.71;99144.44;5452930;26;20067;-94
2024/04/08 11:07:45;;;;;;;15.00;2.03;;;;;;;15.64;68.48;99143.75;5452620;26;20468;-95
2024/04/08 11:10:13;;;;;;;9.10;1.60;;;;;;;15.75;67.32;99135.75;5452495;26;19999;-93
2024/04/08 11:12:39;;;;;;;7.90;1.90;;;;;;;16.21;63.30;99136.28;5452471;26;19999;-94
2024/04/08 11:15:05;;;;;;;8.80;1.17;;;;;;;16.21;62.48;99131.06;5452308;26;20044;-95
2024/04/08 11:17:32;;;;;;;8.05;1.58;;;;;;;16.20;60.06;99126.03;5452371;26;20011;-94